createdAt,value
2023-03-11T00:00:25.219Z,1005
2023-03-11T00:01:54.215Z,1005
2023-03-11T00:03:22.317Z,1004.9
2023-03-11T00:04:50.671Z,1004.8
2023-03-11T00:06:19.729Z,1004.8
2023-03-11T00:07:48.488Z,1004.8
2023-03-11T00:09:17.324Z,1004.9
2023-03-11T00:10:46.026Z,1005
2023-03-11T00:12:14.352Z,1005
2023-03-11T00:13:42.469Z,1005.1
2023-03-11T00:15:10.990Z,1005.1
2023-03-11T00:16:39.780Z,1004.8
2023-03-11T00:18:08.194Z,1004.7
2023-03-11T00:19:36.745Z,1004.8
2023-03-11T00:21:04.883Z,1004.8
2023-03-11T00:22:33.261Z,1004.7
2023-03-11T00:24:01.877Z,1004.7
2023-03-11T00:25:30.646Z,1004.8
2023-03-11T00:26:59.057Z,1004.9
2023-03-11T00:28:27.616Z,1004.9
2023-03-11T00:29:56.217Z,1005
2023-03-11T00:31:24.877Z,1005.1
2023-03-11T00:32:53.819Z,1005.1
2023-03-11T00:34:22.376Z,1005.1
2023-03-11T00:35:51.336Z,1004.9
2023-03-11T00:37:19.495Z,1004.9
2023-03-11T00:38:48.436Z,1004.7
2023-03-11T00:40:17.079Z,1004.8
2023-03-11T00:41:45.054Z,1004.8
2023-03-11T00:43:13.133Z,1004.6
2023-03-11T00:44:42.074Z,1004.6
2023-03-11T00:46:10.389Z,1004.6
2023-03-11T00:47:38.658Z,1004.8
2023-03-11T00:49:06.813Z,1004.9
2023-03-11T00:50:35.193Z,1004.9
2023-03-11T00:52:03.756Z,1004.9
2023-03-11T00:53:33.014Z,1004.9
2023-03-11T00:55:01.603Z,1004.9
2023-03-11T00:56:30.052Z,1005
2023-03-11T00:57:59.283Z,1004.9
2023-03-11T00:59:27.902Z,1004.9
2023-03-11T01:00:56.566Z,1004.8
2023-03-11T01:02:25.385Z,1004.7
2023-03-11T01:03:54.206Z,1004.6
2023-03-11T01:05:22.643Z,1004.7
2023-03-11T01:06:52.074Z,1004.6
2023-03-11T01:08:20.597Z,1004.5
2023-03-11T01:09:49.194Z,1004.3
2023-03-11T01:11:18.032Z,1004.4
2023-03-11T01:12:46.754Z,1004.6
2023-03-11T01:14:14.974Z,1004.8
2023-03-11T01:15:43.732Z,1004.7
2023-03-11T01:17:12.094Z,1004.8
2023-03-11T01:18:40.692Z,1004.7
2023-03-11T01:20:09.714Z,1004.7
2023-03-11T01:21:38.113Z,1004.7
2023-03-11T01:23:06.741Z,1004.6
2023-03-11T01:24:34.835Z,1004.6
2023-03-11T01:26:03.214Z,1004.6
2023-03-11T01:27:32.000Z,1004.6
2023-03-11T01:29:00.437Z,1004.6
2023-03-11T01:30:29.111Z,1004.6
2023-03-11T01:31:57.769Z,1004.6
2023-03-11T01:33:26.373Z,1004.6
2023-03-11T01:34:54.791Z,1004.6
2023-03-11T01:36:23.173Z,1004.6
2023-03-11T01:37:51.488Z,1004.6
2023-03-11T01:39:20.049Z,1004.6
2023-03-11T01:40:48.728Z,1004.6
2023-03-11T01:42:17.381Z,1004.6
2023-03-11T01:43:45.986Z,1004.6
2023-03-11T01:45:14.958Z,1004.6
2023-03-11T01:46:43.636Z,1004.6
2023-03-11T01:48:12.407Z,1004.6
2023-03-11T01:49:40.619Z,1004.5
2023-03-11T01:51:09.299Z,1004.5
2023-03-11T01:52:38.318Z,1004.5
2023-03-11T01:54:06.938Z,1004.5
2023-03-11T01:55:34.934Z,1004.5
2023-03-11T01:57:03.158Z,1004.5
2023-03-11T01:58:31.589Z,1004.4
2023-03-11T02:00:00.052Z,1004.4
2023-03-11T02:01:28.524Z,1004.5
2023-03-11T02:02:56.984Z,1004.5
2023-03-11T02:04:25.108Z,1004.5
2023-03-11T02:05:54.162Z,1004.5
2023-03-11T02:07:22.615Z,1004.5
2023-03-11T02:08:51.568Z,1004.5
2023-03-11T02:10:19.993Z,1004.5
2023-03-11T02:11:48.899Z,1004.5
2023-03-11T02:13:17.592Z,1004.5
2023-03-11T02:14:45.941Z,1004.4
2023-03-11T02:16:14.819Z,1004.5
2023-03-11T02:17:43.646Z,1004.5
2023-03-11T02:19:12.307Z,1004.5
2023-03-11T02:20:40.685Z,1004.5
2023-03-11T02:22:09.545Z,1004.5
2023-03-11T02:23:38.337Z,1004.5
2023-03-11T02:25:07.200Z,1004.4
2023-03-11T02:26:35.779Z,1004.4
2023-03-11T02:28:04.929Z,1004.4
2023-03-11T02:29:33.453Z,1004.4
2023-03-11T02:31:02.174Z,1004.4
2023-03-11T02:32:30.735Z,1004.3
2023-03-11T02:33:59.560Z,1004.3
2023-03-11T02:35:28.330Z,1004.3
2023-03-11T02:36:56.832Z,1004.4
2023-03-11T02:38:25.109Z,1004.4
2023-03-11T02:39:54.173Z,1004.4
2023-03-11T02:41:22.979Z,1004.4
2023-03-11T02:42:51.578Z,1004.4
2023-03-11T02:44:20.334Z,1004.4
2023-03-11T02:45:49.056Z,1004.4
2023-03-11T02:47:17.573Z,1004.4
2023-03-11T02:48:46.477Z,1004.4
2023-03-11T02:50:14.705Z,1004.5
2023-03-11T02:51:43.784Z,1004.5
2023-03-11T02:53:12.521Z,1004.6
2023-03-11T02:54:41.153Z,1004.5
2023-03-11T02:56:09.371Z,1004.4
2023-03-11T02:57:37.851Z,1004.4
2023-03-11T02:59:05.898Z,1004.4
2023-03-11T03:00:34.303Z,1004.3
2023-03-11T03:02:02.576Z,1004.5
2023-03-11T03:03:30.730Z,1004.8
2023-03-11T03:04:59.388Z,1004.8
2023-03-11T03:06:28.130Z,1004.7
2023-03-11T03:07:57.512Z,1004.5
2023-03-11T03:09:26.161Z,1004.5
2023-03-11T03:10:54.553Z,1004.5
2023-03-11T03:12:23.295Z,1004.5
2023-03-11T03:13:52.029Z,1004.5
2023-03-11T03:15:20.950Z,1004.5
2023-03-11T03:16:49.665Z,1004.5
2023-03-11T03:18:18.036Z,1004.5
2023-03-11T03:19:46.628Z,1004.4
2023-03-11T03:21:14.889Z,1004.4
2023-03-11T03:22:44.127Z,1004.4
2023-03-11T03:24:12.669Z,1004.5
2023-03-11T03:25:41.328Z,1004.5
2023-03-11T03:27:10.169Z,1004.5
2023-03-11T03:28:38.604Z,1004.5
2023-03-11T03:30:07.494Z,1004.6
2023-03-11T03:31:36.793Z,1004.5
2023-03-11T03:33:05.421Z,1004.4
2023-03-11T03:34:34.306Z,1004.5
2023-03-11T03:36:03.223Z,1004.5
2023-03-11T03:37:31.742Z,1004.4
2023-03-11T03:38:59.942Z,1004.5
2023-03-11T03:40:28.188Z,1004.5
2023-03-11T03:41:57.027Z,1004.6
2023-03-11T03:43:25.882Z,1004.6
2023-03-11T03:44:54.087Z,1004.6
2023-03-11T03:46:23.326Z,1004.5
2023-03-11T03:47:51.742Z,1004.5
2023-03-11T03:49:20.583Z,1004.6
2023-03-11T03:50:49.459Z,1004.7
2023-03-11T03:52:17.982Z,1004.8
2023-03-11T03:53:46.764Z,1004.8
2023-03-11T03:55:15.384Z,1004.7
2023-03-11T03:56:43.764Z,1004.8
2023-03-11T03:58:12.707Z,1004.8
2023-03-11T03:59:41.386Z,1004.8
2023-03-11T04:01:10.326Z,1004.9
2023-03-11T04:02:39.306Z,1004.8
2023-03-11T04:04:07.829Z,1005
2023-03-11T04:05:36.831Z,1005.1
2023-03-11T04:07:05.071Z,1005
2023-03-11T04:08:33.447Z,1004.9
2023-03-11T04:10:02.751Z,1004.9
2023-03-11T04:11:31.827Z,1004.9
2023-03-11T04:13:00.486Z,1005
2023-03-11T04:14:29.087Z,1005.1
2023-03-11T04:15:57.477Z,1005
2023-03-11T04:17:25.811Z,1005
2023-03-11T04:18:54.555Z,1005
2023-03-11T04:20:22.445Z,1005
2023-03-11T04:21:50.891Z,1005
2023-03-11T04:23:19.540Z,1005
2023-03-11T04:24:48.067Z,1005
2023-03-11T04:26:16.508Z,1005
2023-03-11T04:27:44.828Z,1005.1
2023-03-11T04:29:12.894Z,1005.1
2023-03-11T04:30:42.031Z,1005.1
2023-03-11T04:32:10.324Z,1005.1
2023-03-11T04:33:38.766Z,1005.1
2023-03-11T04:35:07.822Z,1005
2023-03-11T04:36:36.501Z,1005
2023-03-11T04:38:05.142Z,1005
2023-03-11T04:39:33.570Z,1004.9
2023-03-11T04:41:02.380Z,1004.9
2023-03-11T04:42:31.212Z,1005
2023-03-11T04:44:00.089Z,1005.1
2023-03-11T04:45:28.460Z,1005
2023-03-11T04:46:57.166Z,1005
2023-03-11T04:48:26.127Z,1005
2023-03-11T04:49:54.729Z,1005.1
2023-03-11T04:51:23.180Z,1005.3
2023-03-11T04:52:52.259Z,1005.3
2023-03-11T04:54:20.739Z,1005.2
2023-03-11T04:55:49.604Z,1005.1
2023-03-11T04:57:17.903Z,1005.2
2023-03-11T04:58:47.080Z,1005.2
2023-03-11T05:00:15.805Z,1005.3
2023-03-11T05:01:44.457Z,1005.3
2023-03-11T05:03:12.890Z,1005.2
2023-03-11T05:04:41.546Z,1005.1
2023-03-11T05:06:10.305Z,1005
2023-03-11T05:07:39.168Z,1005
2023-03-11T05:09:07.454Z,1005
2023-03-11T05:10:36.636Z,1005
2023-03-11T05:12:05.228Z,1005
2023-03-11T05:13:33.941Z,1005
2023-03-11T05:15:02.278Z,1005
2023-03-11T05:16:30.539Z,1005
2023-03-11T05:17:58.901Z,1005
2023-03-11T05:19:27.361Z,1005.1
2023-03-11T05:20:56.069Z,1005.1
2023-03-11T05:22:24.504Z,1005.1
2023-03-11T05:23:52.966Z,1005.1
2023-03-11T05:25:21.415Z,1005.1
2023-03-11T05:26:49.864Z,1005.2
2023-03-11T05:28:18.415Z,1005.2
2023-03-11T05:29:47.334Z,1005.2
2023-03-11T05:31:16.188Z,1005.3
2023-03-11T05:32:44.911Z,1005.4
2023-03-11T05:34:23.567Z,1005.4
2023-03-11T05:35:52.384Z,1005.5
2023-03-11T05:37:20.468Z,1005.5
2023-03-11T05:38:49.307Z,1005.6
2023-03-11T05:40:17.809Z,1005.6
2023-03-11T05:41:46.408Z,1005.6
2023-03-11T05:43:15.266Z,1005.5
2023-03-11T05:44:43.457Z,1005.5
2023-03-11T05:46:11.793Z,1005.5
2023-03-11T05:47:40.088Z,1005.5
2023-03-11T05:49:08.307Z,1005.5
2023-03-11T05:50:37.274Z,1005.5
2023-03-11T05:52:05.897Z,1005.5
2023-03-11T05:53:34.459Z,1005.5
2023-03-11T05:55:03.375Z,1005.4
2023-03-11T05:56:32.335Z,1005.4
2023-03-11T05:58:00.942Z,1005.3
2023-03-11T05:59:29.174Z,1005.3
2023-03-11T06:00:58.388Z,1005.3
2023-03-11T06:02:26.916Z,1005.3
2023-03-11T06:03:55.964Z,1005.4
2023-03-11T06:05:24.798Z,1005.5
2023-03-11T06:06:53.471Z,1005.5
2023-03-11T06:08:21.732Z,1005.4
2023-03-11T06:09:50.352Z,1005.4
2023-03-11T06:11:19.110Z,1005.4
2023-03-11T06:12:47.872Z,1005.4
2023-03-11T06:14:16.351Z,1005.5
2023-03-11T06:15:44.888Z,1005.6
2023-03-11T06:17:12.840Z,1005.6
2023-03-11T06:18:41.764Z,1005.5
2023-03-11T06:20:10.399Z,1005.4
2023-03-11T06:21:39.025Z,1005.4
2023-03-11T06:23:08.076Z,1005.4
2023-03-11T06:24:36.296Z,1005.4
2023-03-11T06:26:04.586Z,1005.3
2023-03-11T06:27:32.935Z,1005.3
2023-03-11T06:29:02.061Z,1005.4
2023-03-11T06:30:30.632Z,1005.3
2023-03-11T06:31:58.915Z,1005.4
2023-03-11T06:33:27.055Z,1005.5
2023-03-11T06:34:55.745Z,1005.5
2023-03-11T06:36:24.387Z,1005.5
2023-03-11T06:37:53.044Z,1005.6
2023-03-11T06:39:21.839Z,1005.6
2023-03-11T06:40:50.445Z,1005.5
2023-03-11T06:42:18.418Z,1005.4
2023-03-11T06:43:46.880Z,1005.4
2023-03-11T06:45:15.238Z,1005.4
2023-03-11T06:47:04.153Z,1005.4
2023-03-11T06:48:32.880Z,1005.4
2023-03-11T06:50:01.737Z,1005.4
2023-03-11T06:51:30.151Z,1005.4
2023-03-11T06:53:09.298Z,1005.4
2023-03-11T06:54:37.298Z,1005.5
2023-03-11T06:56:05.737Z,1005.6
2023-03-11T06:57:34.057Z,1005.6
2023-03-11T06:59:02.445Z,1005.7
2023-03-11T07:00:30.928Z,1005.7
2023-03-11T07:01:59.157Z,1005.7
2023-03-11T07:03:27.417Z,1005.8
2023-03-11T07:04:55.848Z,1005.7
2023-03-11T07:06:24.786Z,1005.7
2023-03-11T07:07:54.078Z,1005.7
2023-03-11T07:09:22.942Z,1005.9
2023-03-11T07:10:51.181Z,1005.9
2023-03-11T07:12:19.457Z,1005.9
2023-03-11T07:13:47.923Z,1005.9
2023-03-11T07:15:16.396Z,1005.9
2023-03-11T07:16:45.041Z,1005.8
2023-03-11T07:18:13.217Z,1005.8
2023-03-11T07:19:42.078Z,1005.8
2023-03-11T07:21:10.490Z,1005.8
2023-03-11T07:22:38.604Z,1005.8
2023-03-11T07:24:06.855Z,1005.9
2023-03-11T07:25:35.881Z,1005.9
2023-03-11T07:27:04.545Z,1005.9
2023-03-11T07:28:33.186Z,1006
2023-03-11T07:30:02.347Z,1006.1
2023-03-11T07:31:30.822Z,1006.1
2023-03-11T07:32:59.521Z,1006
2023-03-11T07:34:28.094Z,1006
2023-03-11T07:36:47.393Z,1006
2023-03-11T07:38:15.615Z,1006.1
2023-03-11T07:39:43.951Z,1006.1
2023-03-11T07:41:12.252Z,1006.2
2023-03-11T07:42:40.989Z,1006.3
2023-03-11T07:44:10.210Z,1006.3
2023-03-11T07:45:38.104Z,1006.3
2023-03-11T07:47:06.314Z,1006.4
2023-03-11T07:48:34.832Z,1006.4
2023-03-11T07:50:04.522Z,1006.4
2023-03-11T07:51:33.446Z,1006.4
2023-03-11T07:53:01.925Z,1006.4
2023-03-11T07:54:30.340Z,1006.4
2023-03-11T07:56:08.866Z,1006.4
2023-03-11T07:57:37.466Z,1006.4
2023-03-11T07:59:05.636Z,1006.4
2023-03-11T08:00:25.120Z,1006.4
2023-03-11T08:01:53.957Z,1006.4
2023-03-11T08:03:22.783Z,1006.5
2023-03-11T08:04:50.939Z,1006.5
2023-03-11T08:06:19.360Z,1006.5
2023-03-11T08:07:47.820Z,1006.5
2023-03-11T08:09:16.989Z,1006.5
2023-03-11T08:10:45.710Z,1006.6
2023-03-11T08:12:14.246Z,1006.5
2023-03-11T08:13:42.660Z,1006.6
2023-03-11T08:15:11.442Z,1006.6
2023-03-11T08:16:40.036Z,1006.7
2023-03-11T08:18:11.235Z,1006.7
2023-03-11T08:19:36.999Z,1006.7
2023-03-11T08:21:05.280Z,1006.8
2023-03-11T08:22:33.776Z,1006.8
2023-03-11T08:24:02.040Z,1006.7
2023-03-11T08:25:30.545Z,1006.7
2023-03-11T08:26:59.357Z,1006.8
2023-03-11T08:28:28.299Z,1006.8
2023-03-11T08:29:56.485Z,1006.8
2023-03-11T08:31:24.970Z,1006.8
2023-03-11T08:32:53.453Z,1006.8
2023-03-11T08:34:22.058Z,1006.8
2023-03-11T08:35:50.954Z,1006.8
2023-03-11T08:37:19.199Z,1006.8
2023-03-11T08:38:47.644Z,1006.8
2023-03-11T08:40:16.074Z,1006.9
2023-03-11T08:41:44.489Z,1006.9
2023-03-11T08:43:13.006Z,1006.9
2023-03-11T08:44:42.019Z,1006.9
2023-03-11T08:46:10.698Z,1007
2023-03-11T08:47:39.337Z,1007
2023-03-11T08:49:07.864Z,1006.9
2023-03-11T08:50:54.490Z,1006.9
2023-03-11T08:52:04.758Z,1006.9
2023-03-11T08:53:33.217Z,1007
2023-03-11T08:55:01.339Z,1007
2023-03-11T08:56:29.822Z,1006.9
2023-03-11T08:57:58.318Z,1006.9
2023-03-11T08:59:26.927Z,1007
2023-03-11T09:00:56.066Z,1007
2023-03-11T09:02:24.668Z,1007
2023-03-11T09:03:52.996Z,1007
2023-03-11T09:05:21.761Z,1007
2023-03-11T09:06:50.738Z,1007
2023-03-11T09:08:19.376Z,1007
2023-03-11T09:09:48.344Z,1007
2023-03-11T09:11:16.719Z,1007.1
2023-03-11T09:12:45.541Z,1007.2
2023-03-11T09:14:14.315Z,1007.2
2023-03-11T09:15:42.713Z,1007.2
2023-03-11T09:17:11.411Z,1007.2
2023-03-11T09:18:40.492Z,1007.1
2023-03-11T09:20:08.968Z,1007.1
2023-03-11T09:21:37.310Z,1007.2
2023-03-11T09:23:05.611Z,1007.2
2023-03-11T09:24:33.970Z,1007.2
2023-03-11T09:26:02.455Z,1007.1
2023-03-11T09:27:30.971Z,1007.2
2023-03-11T09:28:59.494Z,1007.2
2023-03-11T09:30:27.916Z,1007.1
2023-03-11T09:31:56.316Z,1007.1
2023-03-11T09:33:24.832Z,1007.1
2023-03-11T09:34:53.100Z,1007.2
2023-03-11T09:36:21.973Z,1007.1
2023-03-11T09:37:50.772Z,1007.2
2023-03-11T09:39:19.458Z,1007.1
2023-03-11T09:40:47.708Z,1007.2
2023-03-11T09:42:16.204Z,1007.2
2023-03-11T09:43:44.860Z,1007.1
2023-03-11T09:45:13.922Z,1007.2
2023-03-11T09:46:42.259Z,1007.2
2023-03-11T09:48:11.419Z,1007.2
2023-03-11T09:49:39.559Z,1007.2
2023-03-11T09:51:07.908Z,1007.3
2023-03-11T09:52:36.335Z,1007.2
2023-03-11T09:54:04.892Z,1007.2
2023-03-11T09:55:33.110Z,1007.2
2023-03-11T09:57:01.454Z,1007.2
2023-03-11T09:58:30.324Z,1007.3
2023-03-11T09:59:58.533Z,1007.3
2023-03-11T10:01:27.377Z,1007.3
2023-03-11T10:02:56.461Z,1007.4
2023-03-11T10:04:24.667Z,1007.4
2023-03-11T10:05:52.315Z,1007.3
2023-03-11T10:07:20.707Z,1007.4
2023-03-11T10:08:48.846Z,1007.3
2023-03-11T10:10:17.325Z,1007.3
2023-03-11T10:13:46.218Z,1007.3
2023-03-11T10:15:14.352Z,1007.3
2023-03-11T10:16:42.887Z,1007.4
2023-03-11T10:18:10.993Z,1007.4
2023-03-11T10:19:39.515Z,1007.4
2023-03-11T10:21:07.590Z,1007.4
2023-03-11T10:22:36.403Z,1007.4
2023-03-11T10:24:05.179Z,1007.5
2023-03-11T10:25:33.489Z,1007.5
2023-03-11T10:27:01.840Z,1007.5
2023-03-11T10:28:30.530Z,1007.5
2023-03-11T10:29:58.961Z,1007.5
2023-03-11T10:31:28.080Z,1007.5
2023-03-11T10:32:55.815Z,1007.4
2023-03-11T10:34:24.005Z,1007.5
2023-03-11T10:35:52.522Z,1007.5
2023-03-11T10:37:20.921Z,1007.5
2023-03-11T10:38:49.306Z,1007.5
2023-03-11T10:40:17.529Z,1007.5
2023-03-11T10:41:46.168Z,1007.5
2023-03-11T10:43:14.425Z,1007.5
2023-03-11T10:44:43.558Z,1007.5
2023-03-11T10:46:11.371Z,1007.4
2023-03-11T10:47:39.634Z,1007.4
2023-03-11T10:49:07.865Z,1007.4
2023-03-11T10:50:36.989Z,1007.4
2023-03-11T10:52:04.743Z,1007.4
2023-03-11T10:53:32.705Z,1007.4
2023-03-11T10:55:00.981Z,1007.5
2023-03-11T10:56:29.202Z,1007.5
2023-03-11T10:57:57.568Z,1007.5
2023-03-11T10:59:25.824Z,1007.6
2023-03-11T11:00:54.211Z,1007.6
2023-03-11T11:02:22.781Z,1007.6
2023-03-11T11:03:51.995Z,1007.5
2023-03-11T11:05:20.437Z,1007.5
2023-03-11T11:06:48.885Z,1007.5
2023-03-11T11:08:17.596Z,1007.6
2023-03-11T11:09:45.895Z,1007.6
2023-03-11T11:11:14.164Z,1007.6
2023-03-11T11:12:42.477Z,1007.7
2023-03-11T11:14:11.034Z,1007.8
2023-03-11T11:15:39.203Z,1007.8
2023-03-11T11:17:07.642Z,1007.8
2023-03-11T11:18:36.172Z,1007.9
2023-03-11T11:20:05.294Z,1007.9
2023-03-11T11:21:33.897Z,1007.8
2023-03-11T11:23:02.106Z,1007.9
2023-03-11T11:24:31.316Z,1007.9
2023-03-11T11:25:59.816Z,1008
2023-03-11T11:27:28.418Z,1008
2023-03-11T11:28:57.530Z,1008
2023-03-11T11:30:26.039Z,1008
2023-03-11T11:31:54.240Z,1008
2023-03-11T11:33:23.527Z,1008
2023-03-11T11:34:52.081Z,1008
2023-03-11T11:36:20.967Z,1008.1
2023-03-11T11:37:59.827Z,1008.1
2023-03-11T11:39:29.239Z,1008.1
2023-03-11T11:40:57.664Z,1008.1
2023-03-11T11:42:26.414Z,1008.1
2023-03-11T11:43:54.968Z,1008
2023-03-11T11:45:23.518Z,1008.1
2023-03-11T11:46:52.356Z,1008.2
2023-03-11T11:48:21.171Z,1008.2
2023-03-11T11:49:48.767Z,1008.2
2023-03-11T11:51:17.320Z,1008.2
2023-03-11T11:52:45.616Z,1008.3
2023-03-11T11:54:13.817Z,1008.2
2023-03-11T11:55:42.187Z,1008.3
2023-03-11T11:57:11.197Z,1008.3
2023-03-11T11:58:39.786Z,1008.3
2023-03-11T12:00:08.349Z,1008.3
2023-03-11T12:01:36.847Z,1008.3
2023-03-11T12:03:05.532Z,1008.3
2023-03-11T12:04:34.217Z,1008.3
2023-03-11T12:06:03.233Z,1008.3
2023-03-11T12:07:31.674Z,1008.2
2023-03-11T12:08:59.837Z,1008.2
2023-03-11T12:10:29.117Z,1008.2
2023-03-11T12:11:58.182Z,1008.3
2023-03-11T12:13:27.398Z,1008.3
2023-03-11T12:14:55.943Z,1008.3
2023-03-11T12:16:24.115Z,1008.3
2023-03-11T12:17:52.706Z,1008.4
2023-03-11T12:19:21.265Z,1008.3
2023-03-11T12:20:50.002Z,1008.4
2023-03-11T12:22:18.843Z,1008.3
2023-03-11T12:23:47.974Z,1008.4
2023-03-11T12:25:16.495Z,1008.3
2023-03-11T12:26:44.603Z,1008.4
2023-03-11T12:28:13.181Z,1008.4
2023-03-11T12:29:43.512Z,1008.4
2023-03-11T12:31:10.664Z,1008.4
2023-03-11T12:32:38.529Z,1008.5
2023-03-11T12:34:06.699Z,1008.5
2023-03-11T12:35:35.683Z,1008.5
2023-03-11T12:37:03.932Z,1008.5
2023-03-11T12:38:32.509Z,1008.5
2023-03-11T12:40:00.877Z,1008.6
2023-03-11T12:41:29.162Z,1008.6
2023-03-11T12:42:57.714Z,1008.6
2023-03-11T12:44:26.618Z,1008.6
2023-03-11T12:45:55.022Z,1008.6
2023-03-11T12:47:23.901Z,1008.5
2023-03-11T12:48:52.614Z,1008.5
2023-03-11T12:50:21.337Z,1008.5
2023-03-11T12:51:49.816Z,1008.5
2023-03-11T12:53:19.434Z,1008.4
2023-03-11T12:54:48.411Z,1008.4
2023-03-11T12:56:17.299Z,1008.4
2023-03-11T12:57:45.762Z,1008.5
2023-03-11T12:59:14.113Z,1008.5
2023-03-11T13:00:42.879Z,1008.5
2023-03-11T13:02:11.173Z,1008.5
2023-03-11T13:03:39.603Z,1008.6
2023-03-11T13:05:08.254Z,1008.6
2023-03-11T13:06:36.303Z,1008.6
2023-03-11T13:08:04.797Z,1008.7
2023-03-11T13:09:33.284Z,1008.7
2023-03-11T13:11:01.846Z,1008.6
2023-03-11T13:12:30.257Z,1008.7
2023-03-11T13:13:58.584Z,1008.6
2023-03-11T13:15:27.066Z,1008.6
2023-03-11T13:16:55.670Z,1008.7
2023-03-11T13:18:24.658Z,1008.6
2023-03-11T13:19:53.510Z,1008.6
2023-03-11T13:21:21.978Z,1008.6
2023-03-11T13:22:50.308Z,1008.6
2023-03-11T13:23:59.128Z,1008.6
2023-03-11T13:25:27.321Z,1008.6
2023-03-11T13:26:56.009Z,1008.6
2023-03-11T13:28:24.274Z,1008.7
2023-03-11T13:36:16.331Z,1008.6
2023-03-11T13:37:44.661Z,1008.7
2023-03-11T13:39:13.148Z,1008.6
2023-03-11T13:40:41.895Z,1008.6
2023-03-11T13:46:06.607Z,1008.5
2023-03-11T13:47:34.745Z,1008.6
2023-03-11T13:52:30.288Z,1008.5
2023-03-11T13:53:57.854Z,1008.5
2023-03-11T13:55:26.845Z,1008.6
2023-03-11T13:56:55.063Z,1008.5
2023-03-11T13:58:23.788Z,1008.5
2023-03-11T13:59:52.304Z,1008.5
2023-03-11T14:01:21.314Z,1008.4
2023-03-11T14:02:50.055Z,1008.4
2023-03-11T14:04:18.611Z,1008.4
2023-03-11T14:05:46.723Z,1008.5
2023-03-11T14:07:15.072Z,1008.5
2023-03-11T14:08:44.153Z,1008.5
2023-03-11T14:10:12.873Z,1008.6
2023-03-11T14:11:41.452Z,1008.6
2023-03-11T14:13:10.168Z,1008.6
2023-03-11T14:14:39.001Z,1008.6
2023-03-11T14:16:07.679Z,1008.6
2023-03-11T14:17:35.888Z,1008.6
2023-03-11T14:19:04.215Z,1008.5
2023-03-11T14:20:32.724Z,1008.6
2023-03-11T14:22:01.221Z,1008.6
2023-03-11T14:23:29.468Z,1008.7
2023-03-11T14:24:57.705Z,1008.7
2023-03-11T14:26:25.921Z,1008.7
2023-03-11T14:27:54.270Z,1008.7
2023-03-11T14:29:22.296Z,1008.7
2023-03-11T14:30:51.228Z,1008.7
2023-03-11T14:32:20.001Z,1008.7
2023-03-11T14:33:48.227Z,1008.7
2023-03-11T14:35:17.075Z,1008.8
2023-03-11T14:36:46.207Z,1008.9
2023-03-11T14:38:14.826Z,1008.9
2023-03-11T14:39:43.408Z,1008.9
2023-03-11T14:41:11.696Z,1008.9
2023-03-11T14:42:40.758Z,1008.9
2023-03-11T14:44:09.416Z,1008.8
2023-03-11T14:45:37.858Z,1008.9
2023-03-11T14:47:06.166Z,1008.9
2023-03-11T14:48:34.625Z,1008.9
2023-03-11T14:50:02.937Z,1008.9
2023-03-11T14:51:31.249Z,1008.9
2023-03-11T14:52:59.708Z,1009
2023-03-11T14:54:28.095Z,1009
2023-03-11T14:55:56.343Z,1009
2023-03-11T14:57:25.268Z,1009.1
2023-03-11T14:59:08.473Z,1009.1
2023-03-11T15:00:23.349Z,1009.1
2023-03-11T15:01:51.464Z,1009
2023-03-11T15:03:40.324Z,1009.1
2023-03-11T15:04:49.054Z,1009.1
2023-03-11T15:06:08.108Z,1009.1
2023-03-11T15:07:36.355Z,1009.1
2023-03-11T15:09:04.582Z,1009.1
2023-03-11T15:10:32.871Z,1009.1
2023-03-11T15:12:01.006Z,1009.2
2023-03-11T15:13:20.561Z,1009.2
2023-03-11T15:14:48.893Z,1009.2
2023-03-11T15:16:17.178Z,1009.2
2023-03-11T15:17:45.164Z,1009.2
2023-03-11T15:19:14.051Z,1009.2
2023-03-11T15:20:43.053Z,1009.2
2023-03-11T15:22:11.530Z,1009.3
2023-03-11T15:23:40.316Z,1009.3
2023-03-11T15:25:08.875Z,1009.2
2023-03-11T15:26:37.708Z,1009.3
2023-03-11T15:28:05.687Z,1009.3
2023-03-11T15:29:34.004Z,1009.3
2023-03-11T15:31:03.158Z,1009.3
2023-03-11T15:32:32.667Z,1009.4
2023-03-11T15:34:01.172Z,1009.4
2023-03-11T15:35:29.730Z,1009.4
2023-03-11T15:36:58.697Z,1009.4
2023-03-11T15:38:27.319Z,1009.4
2023-03-11T15:39:55.659Z,1009.5
2023-03-11T15:41:24.239Z,1009.4
2023-03-11T15:42:39.899Z,1009.3
2023-03-11T15:44:08.582Z,1009.3
2023-03-11T15:45:37.517Z,1009.3
2023-03-11T15:47:05.828Z,1009.3
2023-03-11T15:48:34.538Z,1009.3
2023-03-11T15:50:02.768Z,1009.3
2023-03-11T15:51:32.279Z,1009.4
2023-03-11T15:53:00.158Z,1009.4
2023-03-11T15:54:28.330Z,1009.3
2023-03-11T15:56:01.326Z,1009.3
2023-03-11T15:57:24.776Z,1009.4
2023-03-11T15:58:52.946Z,1009.4
2023-03-11T16:00:21.437Z,1009.4
2023-03-11T16:01:50.452Z,1009.4
2023-03-11T16:03:19.289Z,1009.4
2023-03-11T16:04:48.178Z,1009.4
2023-03-11T16:06:16.286Z,1009.4
2023-03-11T16:07:45.046Z,1009.5
2023-03-11T16:09:13.389Z,1009.5
2023-03-11T16:10:41.527Z,1009.4
2023-03-11T16:12:09.995Z,1009.5
2023-03-11T16:13:38.556Z,1009.5
2023-03-11T16:15:06.976Z,1009.6
2023-03-11T16:16:35.447Z,1009.5
2023-03-11T16:18:04.080Z,1009.5
2023-03-11T16:19:32.365Z,1009.6
2023-03-11T16:21:00.653Z,1009.6
2023-03-11T16:22:29.695Z,1009.6
2023-03-11T16:23:58.592Z,1009.6
2023-03-11T16:25:27.284Z,1009.6
2023-03-11T16:26:56.654Z,1009.6
2023-03-11T16:28:04.555Z,1009.6
2023-03-11T16:29:33.035Z,1009.6
2023-03-11T16:31:01.720Z,1009.6
2023-03-11T16:32:30.143Z,1009.6
2023-03-11T16:33:58.238Z,1009.6
2023-03-11T16:35:26.698Z,1009.7
2023-03-11T16:36:54.762Z,1009.7
2023-03-11T16:38:23.529Z,1009.7
2023-03-11T16:39:51.855Z,1009.7
2023-03-11T16:41:21.045Z,1009.7
2023-03-11T16:42:49.163Z,1009.8
2023-03-11T16:44:17.343Z,1009.8
2023-03-11T16:45:26.734Z,1009.8
2023-03-11T16:46:55.390Z,1009.9
2023-03-11T16:48:23.375Z,1009.9
2023-03-11T16:49:52.045Z,1010
2023-03-11T16:51:21.094Z,1010
2023-03-11T16:52:50.148Z,1010
2023-03-11T16:54:18.768Z,1010
2023-03-11T16:55:46.911Z,1010
2023-03-11T16:57:15.834Z,1010.1
2023-03-11T16:58:44.575Z,1010.1
2023-03-11T17:00:13.057Z,1010.1
2023-03-11T17:01:41.785Z,1010.1
2023-03-11T17:03:10.687Z,1010.2
2023-03-11T17:04:39.384Z,1010.1
2023-03-11T17:06:07.849Z,1010.2
2023-03-11T17:07:40.019Z,1010.2
2023-03-11T17:09:04.676Z,1010.2
2023-03-11T17:10:33.702Z,1010.2
2023-03-11T17:12:01.565Z,1010.2
2023-03-11T17:13:29.644Z,1010.2
2023-03-11T17:16:19.809Z,1010.2
2023-03-11T17:17:47.992Z,1010.2
2023-03-11T17:19:16.684Z,1010.2
2023-03-11T17:20:44.565Z,1010.2
2023-03-11T17:22:13.115Z,1010.3
2023-03-11T17:23:41.446Z,1010.3
2023-03-11T17:25:10.356Z,1010.3
2023-03-11T17:26:39.223Z,1010.2
2023-03-11T17:28:07.935Z,1010.2
2023-03-11T17:29:36.109Z,1010.2
2023-03-11T17:31:05.143Z,1010.3
2023-03-11T17:32:34.126Z,1010.2
2023-03-11T17:34:02.728Z,1010.3
2023-03-11T17:35:31.216Z,1010.3
2023-03-11T17:36:59.809Z,1010.3
2023-03-11T17:38:28.236Z,1010.3
2023-03-11T17:39:56.792Z,1010.3
2023-03-11T17:41:24.950Z,1010.4
2023-03-11T17:42:54.067Z,1010.3
2023-03-11T17:44:23.034Z,1010.3
2023-03-11T17:45:51.801Z,1010.4
2023-03-11T17:47:20.623Z,1010.4
2023-03-11T17:48:48.172Z,1010.4
2023-03-11T17:50:16.632Z,1010.5
2023-03-11T17:51:45.401Z,1010.5
2023-03-11T17:53:13.971Z,1010.5
2023-03-11T17:54:42.446Z,1010.5
2023-03-11T17:56:10.414Z,1010.5
2023-03-11T17:57:46.134Z,1010.5
2023-03-11T17:59:07.991Z,1010.6
2023-03-11T18:00:37.171Z,1010.6
2023-03-11T18:02:06.327Z,1010.6
2023-03-11T18:03:34.811Z,1010.6
2023-03-11T18:05:03.192Z,1010.6
2023-03-11T18:06:31.833Z,1010.6
2023-03-11T18:07:59.964Z,1010.6
2023-03-11T18:09:28.946Z,1010.6
2023-03-11T18:10:57.806Z,1010.6
2023-03-11T18:12:26.158Z,1010.7
2023-03-11T18:13:54.877Z,1010.7
2023-03-11T18:15:23.859Z,1010.7
2023-03-11T18:16:52.725Z,1010.7
2023-03-11T18:18:21.088Z,1010.7
2023-03-11T18:19:49.655Z,1010.7
2023-03-11T18:21:17.724Z,1010.8
2023-03-11T18:22:47.365Z,1010.8
2023-03-11T18:24:14.266Z,1010.8
2023-03-11T18:25:42.645Z,1010.8
2023-03-11T18:27:11.253Z,1010.8
2023-03-11T18:28:39.509Z,1010.8
2023-03-11T18:30:08.087Z,1010.8
2023-03-11T18:31:36.658Z,1010.8
2023-03-11T18:33:05.366Z,1010.8
2023-03-11T18:34:34.163Z,1010.8
2023-03-11T18:36:03.118Z,1010.9
2023-03-11T18:37:31.876Z,1010.8
2023-03-11T18:39:00.114Z,1010.9
2023-03-11T18:40:29.104Z,1010.8
2023-03-11T18:41:57.782Z,1011
2023-03-11T18:43:26.331Z,1011
2023-03-11T18:44:55.347Z,1010.9
2023-03-11T18:46:24.025Z,1011
2023-03-11T18:47:52.484Z,1011